Time;durP1;ratioP1;P1;durP2;ratioP2;P2;SDS_P1;SDS_P2;PMS_P1;PMS_P2;Temp;Humidity;BMP_temperature;BMP_pressure;BME280_temperature;BME280_humidity;BME280_pressure;Samples;Min_cycle;Max_cycle;Signal;HPM_P1;HPM_P2
2024/01/04 00:00:32;;;;;;;;;;;22.20;41.10;;;;;;5075470;28;19960;-49
2024/01/04 00:02:59;;;;;;;;;;;22.30;41.20;;;;;;5074924;28;19928;-52
2024/01/04 00:05:26;;;;;;;;;;;22.20;41.10;;;;;;5074997;28;20364;-52
2024/01/04 00:07:53;;;;;;;;;;;22.20;41.10;;;;;;5074700;28;19928;-48
2024/01/04 00:10:20;;;;;;;;;;;22.30;41.20;;;;;;5075027;28;20263;-55
2024/01/04 00:12:48;;;;;;;;;;;22.20;41.10;;;;;;5075162;28;19924;-51
2024/01/04 00:15:15;;;;;;;;;;;22.30;41.20;;;;;;5075091;28;19925;-51
2024/01/04 00:17:42;;;;;;;;;;;22.20;41.10;;;;;;5074523;28;20388;-50
2024/01/04 00:20:10;;;;;;;;;;;22.20;41.10;;;;;;5075000;28;20267;-50
2024/01/04 00:22:37;;;;;;;;;;;22.30;41.20;;;;;;5074758;28;19928;-52
2024/01/04 00:25:04;;;;;;;;;;;22.20;41.10;;;;;;5074651;28;19925;-49
2024/01/04 00:27:31;;;;;;;;;;;22.20;41.10;;;;;;5074768;28;19932;-50
2024/01/04 00:29:58;;;;;;;;;;;22.20;41.10;;;;;;5074336;28;19924;-48
2024/01/04 00:32:25;;;;;;;;;;;22.20;41.10;;;;;;5074482;28;19924;-52
2024/01/04 00:34:52;;;;;;;;;;;22.20;41.10;;;;;;5074740;28;19925;-52
2024/01/04 00:37:19;;;;;;;;;;;22.30;41.10;;;;;;5074702;28;19924;-48
2024/01/04 00:39:48;;;;;;;;;;;22.20;41.10;;;;;;5074522;28;20023;-49
2024/01/04 00:42:16;;;;;;;;;;;22.30;41.10;;;;;;5074376;28;19955;-49
2024/01/04 00:44:42;;;;;;;;;;;22.20;41.00;;;;;;5074330;28;20007;-50
2024/01/04 00:47:09;;;;;;;;;;;22.20;41.00;;;;;;5074494;28;19924;-48
2024/01/04 00:49:36;;;;;;;;;;;22.20;41.00;;;;;;5073613;28;19974;-47
2024/01/04 00:52:04;;;;;;;;;;;22.20;41.00;;;;;;5074012;28;19924;-52
2024/01/04 00:54:31;;;;;;;;;;;22.20;41.00;;;;;;5074088;28;19975;-51
2024/01/04 00:56:58;;;;;;;;;;;22.20;41.00;;;;;;5073867;28;19931;-51
2024/01/04 00:59:26;;;;;;;;;;;22.20;41.00;;;;;;5074231;28;19928;-50
2024/01/04 01:01:53;;;;;;;;;;;22.20;41.00;;;;;;5074100;28;19925;-51
2024/01/04 01:04:20;;;;;;;;;;;22.20;41.00;;;;;;5073362;28;20002;-49
2024/01/04 01:06:46;;;;;;;;;;;22.20;41.00;;;;;;5073858;28;19932;-51
2024/01/04 01:09:14;;;;;;;;;;;22.20;41.00;;;;;;5073842;28;19931;-50
2024/01/04 01:11:41;;;;;;;;;;;22.20;41.00;;;;;;5073918;28;19928;-54
2024/01/04 01:14:08;;;;;;;;;;;22.10;40.90;;;;;;5073710;28;19924;-57
2024/01/04 01:16:35;;;;;;;;;;;22.10;40.90;;;;;;5073793;28;19932;-57
2024/01/04 01:19:03;;;;;;;;;;;22.10;40.90;;;;;;5073919;28;19928;-58
2024/01/04 01:21:30;;;;;;;;;;;22.20;41.00;;;;;;5073203;28;19970;-51
2024/01/04 01:23:57;;;;;;;;;;;22.10;40.90;;;;;;5073408;28;20447;-49
2024/01/04 01:26:24;;;;;;;;;;;22.10;40.90;;;;;;5073560;28;19924;-52
2024/01/04 01:28:51;;;;;;;;;;;22.10;40.90;;;;;;5073289;28;19931;-51
2024/01/04 01:31:18;;;;;;;;;;;22.20;40.90;;;;;;5073435;28;19931;-52
2024/01/04 01:33:45;;;;;;;;;;;22.10;41.40;;;;;;5073332;28;19924;-54
2024/01/04 01:36:12;;;;;;;;;;;22.20;41.00;;;;;;5073503;28;19931;-53
2024/01/04 01:38:39;;;;;;;;;;;22.10;40.90;;;;;;5073540;28;19978;-51
2024/01/04 01:41:06;;;;;;;;;;;22.10;40.90;;;;;;5073280;28;19924;-56
2024/01/04 01:43:33;;;;;;;;;;;22.20;41.00;;;;;;5073138;28;19925;-55
2024/01/04 01:46:00;;;;;;;;;;;22.20;40.90;;;;;;5073264;28;20019;-53
2024/01/04 01:48:28;;;;;;;;;;;22.20;40.90;;;;;;5073286;28;19928;-57
2024/01/04 01:50:55;;;;;;;;;;;22.20;40.90;;;;;;5073090;28;19978;-52
2024/01/04 01:53:24;;;;;;;;;;;22.20;40.80;;;;;;5073206;28;20019;-53
2024/01/04 01:55:51;;;;;;;;;;;22.10;40.80;;;;;;5073333;28;19924;-51
2024/01/04 01:58:19;;;;;;;;;;;22.10;40.80;;;;;;5073370;28;19928;-52
2024/01/04 02:00:46;;;;;;;;;;;22.20;40.80;;;;;;5073550;28;20314;-50
2024/01/04 02:03:14;;;;;;;;;;;22.10;40.80;;;;;;5075434;28;20385;-54
2024/01/04 02:05:41;;;;;;;;;;;22.10;40.80;;;;;;5077052;28;19925;-55
2024/01/04 02:08:08;;;;;;;;;;;22.10;40.70;;;;;;5077076;28;19931;-54
2024/01/04 02:10:35;;;;;;;;;;;22.10;40.70;;;;;;5077259;28;20015;-53
2024/01/04 02:13:02;;;;;;;;;;;22.10;40.70;;;;;;5076882;28;20378;-53
2024/01/04 02:15:29;;;;;;;;;;;22.10;40.70;;;;;;5059295;28;19931;-55
2024/01/04 02:17:56;;;;;;;;;;;22.10;40.70;;;;;;5076883;28;19924;-53
2024/01/04 02:20:23;;;;;;;;;;;22.10;40.70;;;;;;5076771;28;19931;-51
2024/01/04 02:22:51;;;;;;;;;;;22.10;40.70;;;;;;5076967;28;19925;-55
2024/01/04 02:25:18;;;;;;;;;;;22.10;40.70;;;;;;5076884;28;19936;-54
2024/01/04 02:27:45;;;;;;;;;;;22.10;40.70;;;;;;5076786;28;19924;-49
2024/01/04 02:30:12;;;;;;;;;;;22.10;40.70;;;;;;5076506;28;19924;-54
2024/01/04 02:32:40;;;;;;;;;;;22.10;40.70;;;;;;5076553;28;19928;-48
2024/01/04 02:35:07;;;;;;;;;;;22.10;40.70;;;;;;5076907;28;20337;-54
2024/01/04 02:37:34;;;;;;;;;;;22.20;40.80;;;;;;5077009;28;20349;-54
2024/01/04 02:40:02;;;;;;;;;;;22.10;40.70;;;;;;5076602;28;19938;-51
2024/01/04 02:42:31;;;;;;;;;;;22.10;40.70;;;;;;5076687;28;19925;-53
2024/01/04 02:44:59;;;;;;;;;;;22.10;40.70;;;;;;5076484;28;19967;-51
2024/01/04 02:47:26;;;;;;;;;;;22.10;40.70;;;;;;5076581;28;19925;-54
2024/01/04 02:49:53;;;;;;;;;;;22.10;40.70;;;;;;5076507;28;19924;-48
2024/01/04 02:52:20;;;;;;;;;;;22.20;40.70;;;;;;5058803;28;19932;-54
2024/01/04 02:54:47;;;;;;;;;;;22.10;40.60;;;;;;5076554;28;20336;-53
2024/01/04 02:57:13;;;;;;;;;;;22.20;40.70;;;;;;5076704;28;19928;-49
2024/01/04 02:59:40;;;;;;;;;;;22.10;40.60;;;;;;5076322;28;19924;-48
2024/01/04 03:02:07;;;;;;;;;;;22.10;40.60;;;;;;5076179;28;19929;-49
2024/01/04 03:04:36;;;;;;;;;;;22.10;40.60;;;;;;5076025;28;19924;-48
2024/01/04 03:07:03;;;;;;;;;;;22.10;40.60;;;;;;5076348;28;20011;-48
2024/01/04 03:09:30;;;;;;;;;;;22.20;40.70;;;;;;5075993;28;19931;-49
2024/01/04 03:11:57;;;;;;;;;;;22.20;40.70;;;;;;5075776;28;19932;-49
2024/01/04 03:14:24;;;;;;;;;;;22.10;40.60;;;;;;5075731;28;19924;-48
2024/01/04 03:16:51;;;;;;;;;;;22.10;40.60;;;;;;5075951;28;19971;-52
2024/01/04 03:19:18;;;;;;;;;;;22.10;40.60;;;;;;5076096;28;19929;-52
2024/01/04 03:21:45;;;;;;;;;;;22.10;40.60;;;;;;5076008;28;19931;-48
2024/01/04 03:24:14;;;;;;;;;;;22.10;40.60;;;;;;5075268;28;20469;-49
2024/01/04 03:26:41;;;;;;;;;;;22.10;40.60;;;;;;5075869;28;19978;-48
2024/01/04 03:29:08;;;;;;;;;;;22.10;40.60;;;;;;5075896;28;20301;-49
2024/01/04 03:31:35;;;;;;;;;;;22.10;40.60;;;;;;5075123;28;19968;-52
2024/01/04 03:34:02;;;;;;;;;;;22.10;40.60;;;;;;5075382;28;19925;-49
2024/01/04 03:36:29;;;;;;;;;;;22.10;40.60;;;;;;5075888;28;19929;-49
2024/01/04 03:38:57;;;;;;;;;;;22.10;40.60;;;;;;5075291;28;19928;-49
2024/01/04 03:41:24;;;;;;;;;;;22.10;40.50;;;;;;5075374;28;20406;-52
2024/01/04 03:43:51;;;;;;;;;;;22.10;40.50;;;;;;5075202;28;19975;-48
2024/01/04 03:46:18;;;;;;;;;;;22.10;40.60;;;;;;5075655;28;19933;-48
2024/01/04 03:48:45;;;;;;;;;;;22.20;40.60;;;;;;5075235;28;19997;-50
2024/01/04 03:51:13;;;;;;;;;;;22.10;40.60;;;;;;5075393;28;19931;-48
2024/01/04 03:53:40;;;;;;;;;;;22.10;40.60;;;;;;5057330;28;19931;-48
2024/01/04 03:56:07;;;;;;;;;;;22.10;40.50;;;;;;5075043;28;19970;-48
2024/01/04 03:58:35;;;;;;;;;;;22.20;40.50;;;;;;5075258;28;19924;-50
2024/01/04 04:01:02;;;;;;;;;;;22.10;40.50;;;;;;5075342;28;20290;-48
2024/01/04 04:03:29;;;;;;;;;;;22.10;40.50;;;;;;5074765;28;19924;-51
2024/01/04 04:05:56;;;;;;;;;;;22.10;40.50;;;;;;5075282;28;19972;-54
2024/01/04 04:08:23;;;;;;;;;;;22.10;40.50;;;;;;5074941;28;19986;-55
2024/01/04 04:10:50;;;;;;;;;;;22.10;40.50;;;;;;5074624;28;20336;-55
2024/01/04 04:13:17;;;;;;;;;;;22.10;40.50;;;;;;5075133;28;19924;-54
2024/01/04 04:15:44;;;;;;;;;;;22.10;40.50;;;;;;5074718;28;19978;-56
2024/01/04 04:18:11;;;;;;;;;;;22.10;40.50;;;;;;5074506;28;20015;-55
2024/01/04 04:20:38;;;;;;;;;;;22.10;40.50;;;;;;5074658;28;19970;-54
2024/01/04 04:23:05;;;;;;;;;;;22.10;40.50;;;;;;5074602;28;19936;-53
2024/01/04 04:25:32;;;;;;;;;;;22.10;40.50;;;;;;5073889;28;19925;-53
2024/01/04 04:27:59;;;;;;;;;;;22.10;40.50;;;;;;5074466;28;19925;-51
2024/01/04 04:30:27;;;;;;;;;;;22.10;40.50;;;;;;5074605;28;19925;-54
2024/01/04 04:32:54;;;;;;;;;;;22.10;40.50;;;;;;5074373;28;19939;-53
2024/01/04 04:35:21;;;;;;;;;;;22.10;40.50;;;;;;5074291;28;19931;-53
2024/01/04 04:37:48;;;;;;;;;;;22.10;40.50;;;;;;5074409;28;20018;-52
2024/01/04 04:40:15;;;;;;;;;;;22.10;40.40;;;;;;5074611;28;19970;-51
2024/01/04 04:42:42;;;;;;;;;;;22.10;40.20;;;;;;5074460;28;20319;-51
2024/01/04 04:45:09;;;;;;;;;;;22.10;40.00;;;;;;5074400;28;19925;-52
2024/01/04 04:47:36;;;;;;;;;;;22.10;39.90;;;;;;5074088;28;20392;-48
2024/01/04 04:50:04;;;;;;;;;;;22.20;39.80;;;;;;5074292;28;19924;-54
2024/01/04 04:52:31;;;;;;;;;;;22.20;39.60;;;;;;5073939;28;19924;-48
2024/01/04 04:54:57;;;;;;;;;;;22.20;39.50;;;;;;5074198;28;19925;-54
2024/01/04 04:57:24;;;;;;;;;;;22.20;39.40;;;;;;5056381;28;20010;-50
2024/01/04 04:59:51;;;;;;;;;;;22.20;39.40;;;;;;5073747;28;19967;-53
2024/01/04 05:02:18;;;;;;;;;;;22.20;39.30;;;;;;5056182;28;19935;-47
2024/01/04 05:04:45;;;;;;;;;;;22.20;39.30;;;;;;5074047;28;19963;-50
2024/01/04 05:07:12;;;;;;;;;;;22.20;39.30;;;;;;5073892;28;19924;-49
2024/01/04 05:09:39;;;;;;;;;;;22.20;39.20;;;;;;5073584;28;19982;-49
2024/01/04 05:12:07;;;;;;;;;;;22.20;39.20;;;;;;5073840;28;19946;-50
2024/01/04 05:14:34;;;;;;;;;;;22.20;39.10;;;;;;5073459;28;20282;-49
2024/01/04 05:17:01;;;;;;;;;;;22.20;39.00;;;;;;5073524;28;20405;-53
2024/01/04 05:19:28;;;;;;;;;;;22.30;39.10;;;;;;5073682;28;19924;-51
2024/01/04 05:21:55;;;;;;;;;;;22.30;39.00;;;;;;5073506;28;19924;-50
2024/01/04 05:24:22;;;;;;;;;;;22.30;39.00;;;;;;5073253;28;20011;-53
2024/01/04 05:26:49;;;;;;;;;;;22.30;38.90;;;;;;5073450;28;19981;-49
2024/01/04 05:29:16;;;;;;;;;;;22.30;38.90;;;;;;5073499;28;20297;-48
2024/01/04 05:31:43;;;;;;;;;;;22.30;38.80;;;;;;5073514;28;20015;-48
2024/01/04 05:34:09;;;;;;;;;;;22.30;38.80;;;;;;5073299;28;19924;-48
2024/01/04 05:36:36;;;;;;;;;;;22.30;38.80;;;;;;5073020;28;20023;-52
2024/01/04 05:39:03;;;;;;;;;;;22.30;38.80;;;;;;5073274;28;19974;-50
2024/01/04 05:41:30;;;;;;;;;;;22.30;38.80;;;;;;5073157;28;19931;-49
2024/01/04 05:43:57;;;;;;;;;;;22.40;38.80;;;;;;5073175;28;20015;-48
2024/01/04 05:46:24;;;;;;;;;;;22.40;38.80;;;;;;5073430;28;20278;-48
2024/01/04 05:48:51;;;;;;;;;;;22.40;38.80;;;;;;5055531;28;19931;-48
2024/01/04 05:51:18;;;;;;;;;;;22.40;38.80;;;;;;5073211;28;19925;-48
2024/01/04 05:53:45;;;;;;;;;;;22.40;38.80;;;;;;5055653;28;19995;-53
2024/01/04 05:56:12;;;;;;;;;;;22.40;38.80;;;;;;5073264;28;20019;-50
2024/01/04 05:58:39;;;;;;;;;;;22.40;38.80;;;;;;5073431;28;19928;-49
2024/01/04 06:01:08;;;;;;;;;;;22.40;38.80;;;;;;5072585;28;20366;-48
2024/01/04 06:03:35;;;;;;;;;;;22.40;38.70;;;;;;5072915;28;20374;-48
2024/01/04 06:06:03;;;;;;;;;;;22.40;38.70;;;;;;5072814;28;19976;-48
2024/01/04 06:08:29;;;;;;;;;;;22.50;38.80;;;;;;5072852;28;19929;-48
2024/01/04 06:10:56;;;;;;;;;;;22.50;38.70;;;;;;5072797;28;19972;-55
2024/01/04 06:13:26;;;;;;;;;;;22.50;38.70;;;;;;5072289;28;19932;-51
2024/01/04 06:15:53;;;;;;;;;;;22.50;38.70;;;;;;5071998;28;20002;-53
2024/01/04 06:18:20;;;;;;;;;;;22.50;38.70;;;;;;5071236;28;19979;-55
2024/01/04 06:20:48;;;;;;;;;;;22.60;38.70;;;;;;5061081;28;19933;-55
2024/01/04 06:23:16;;;;;;;;;;;22.60;38.60;;;;;;5067084;28;19943;-54
2024/01/04 06:25:43;;;;;;;;;;;22.60;38.60;;;;;;5066014;28;19931;-54
2024/01/04 06:28:10;;;;;;;;;;;22.60;38.60;;;;;;5065147;28;20440;-54
2024/01/04 06:30:37;;;;;;;;;;;22.60;38.60;;;;;;5068301;28;20070;-53
2024/01/04 06:33:04;;;;;;;;;;;22.60;38.70;;;;;;5069641;28;19929;-49
2024/01/04 06:35:31;;;;;;;;;;;22.70;38.90;;;;;;5077344;28;19924;-53
2024/01/04 06:37:58;;;;;;;;;;;22.70;39.30;;;;;;5064775;28;20399;-54
2024/01/04 06:40:25;;;;;;;;;;;22.70;39.40;;;;;;5067355;28;19936;-50
2024/01/04 06:42:55;;;;;;;;;;;22.70;39.50;;;;;;5070071;28;20377;-52
2024/01/04 06:45:22;;;;;;;;;;;22.70;39.50;;;;;;5069562;28;19936;-52
2024/01/04 06:47:50;;;;;;;;;;;22.80;39.50;;;;;;5050820;28;20659;-51
2024/01/04 06:50:17;;;;;;;;;;;22.80;39.50;;;;;;5071019;28;19936;-55
2024/01/04 06:52:45;;;;;;;;;;;22.80;39.50;;;;;;5070970;28;19928;-49
2024/01/04 06:55:12;;;;;;;;;;;22.90;39.40;;;;;;5068192;28;19959;-52
2024/01/04 06:57:39;;;;;;;;;;;22.80;39.30;;;;;;5070229;28;20011;-51
2024/01/04 07:00:10;;;;;;;;;;;22.90;39.30;;;;;;5066040;28;20401;-52
2024/01/04 07:02:38;;;;;;;;;;;22.90;39.20;;;;;;5067577;28;19971;-52
2024/01/04 07:05:06;;;;;;;;;;;22.90;39.10;;;;;;5069142;28;20025;-53
2024/01/04 07:07:34;;;;;;;;;;;22.90;39.00;;;;;;5071541;28;19985;-50
2024/01/04 07:10:02;;;;;;;;;;;23.00;39.00;;;;;;5061935;28;19932;-51
2024/01/04 07:12:29;;;;;;;;;;;23.00;39.00;;;;;;5065113;28;19965;-54
2024/01/04 07:14:56;;;;;;;;;;;23.00;39.00;;;;;;5061905;28;19924;-53
2024/01/04 07:17:23;;;;;;;;;;;23.00;39.10;;;;;;5059031;28;19932;-54
2024/01/04 07:19:50;;;;;;;;;;;23.00;39.10;;;;;;5070004;28;19936;-52
2024/01/04 07:22:18;;;;;;;;;;;23.10;39.10;;;;;;5071010;28;19939;-54
2024/01/04 07:24:45;;;;;;;;;;;23.10;39.10;;;;;;5067463;28;19924;-53
2024/01/04 07:27:12;;;;;;;;;;;23.10;39.00;;;;;;5068529;28;19933;-52
2024/01/04 07:29:39;;;;;;;;;;;23.10;38.90;;;;;;5069912;28;19935;-55
2024/01/04 07:32:06;;;;;;;;;;;23.20;39.00;;;;;;5067576;28;20009;-55
2024/01/04 07:34:36;;;;;;;;;;;23.20;39.20;;;;;;5065377;28;19978;-54
2024/01/04 07:37:04;;;;;;;;;;;23.20;39.70;;;;;;5066962;28;19967;-51
2024/01/04 07:39:30;;;;;;;;;;;23.30;39.10;;;;;;5065859;28;19928;-55
2024/01/04 07:41:57;;;;;;;;;;;23.30;39.00;;;;;;5071924;28;19932;-49
2024/01/04 07:44:26;;;;;;;;;;;23.30;39.00;;;;;;5068129;28;20717;-51
2024/01/04 07:46:52;;;;;;;;;;;23.40;39.10;;;;;;5065406;28;19936;-51
2024/01/04 07:49:19;;;;;;;;;;;23.40;38.90;;;;;;5068041;28;19939;-52
2024/01/04 07:51:47;;;;;;;;;;;23.40;38.90;;;;;;5067245;28;19939;-51
2024/01/04 07:54:14;;;;;;;;;;;23.50;38.80;;;;;;5065842;28;19924;-50
2024/01/04 07:56:41;;;;;;;;;;;23.50;38.70;;;;;;5050715;28;19924;-48
2024/01/04 07:59:09;;;;;;;;;;;23.50;38.70;;;;;;5067219;28;19956;-52
2024/01/04 08:01:36;;;;;;;;;;;23.60;38.70;;;;;;5058605;28;19932;-50
2024/01/04 08:04:06;;;;;;;;;;;23.60;38.60;;;;;;5067085;28;19931;-48
2024/01/04 08:06:33;;;;;;;;;;;23.70;38.50;;;;;;5067098;28;19992;-47
2024/01/04 08:09:00;;;;;;;;;;;23.70;38.40;;;;;;5066146;28;20263;-50
2024/01/04 08:11:27;;;;;;;;;;;23.70;38.60;;;;;;5067037;28;20016;-50
2024/01/04 08:13:54;;;;;;;;;;;23.70;38.70;;;;;;5063754;28;19928;-47
2024/01/04 08:16:21;;;;;;;;;;;23.80;38.70;;;;;;5066752;28;19928;-47
2024/01/04 08:18:48;;;;;;;;;;;23.80;38.70;;;;;;5065670;28;19932;-51
2024/01/04 08:21:16;;;;;;;;;;;23.80;38.70;;;;;;5064866;28;19924;-51
2024/01/04 08:23:43;;;;;;;;;;;23.90;38.80;;;;;;5066501;28;19924;-51
2024/01/04 08:26:10;;;;;;;;;;;23.90;38.80;;;;;;5065565;28;20030;-52
2024/01/04 08:28:38;;;;;;;;;;;23.90;38.90;;;;;;5066075;28;19924;-49
2024/01/04 08:31:05;;;;;;;;;;;24.00;38.90;;;;;;5064703;28;19939;-50
2024/01/04 08:33:32;;;;;;;;;;;24.00;38.90;;;;;;5065207;28;20018;-55
2024/01/04 08:36:00;;;;;;;;;;;24.00;38.80;;;;;;5065412;28;20437;-55
2024/01/04 08:38:27;;;;;;;;;;;24.00;39.00;;;;;;5066846;28;19939;-54
2024/01/04 08:40:54;;;;;;;;;;;24.10;39.00;;;;;;5067504;28;19928;-54
2024/01/04 08:43:21;;;;;;;;;;;24.10;38.80;;;;;;5070747;28;19940;-54
2024/01/04 08:45:49;;;;;;;;;;;24.20;38.60;;;;;;5069102;28;19928;-53
2024/01/04 08:48:17;;;;;;;;;;;24.20;38.50;;;;;;5068099;28;19978;-55
2024/01/04 08:50:45;;;;;;;;;;;24.20;38.40;;;;;;5064541;28;20234;-50
2024/01/04 08:53:20;;;;;;;;;;;24.30;38.40;;;;;;5064549;28;19970;-51
2024/01/04 08:55:48;;;;;;;;;;;24.30;38.90;;;;;;5068218;28;20017;-49
2024/01/04 08:58:15;;;;;;;;;;;24.30;38.30;;;;;;5066519;28;19932;-54
2024/01/04 09:00:42;;;;;;;;;;;24.30;38.30;;;;;;5065320;28;19932;-51
2024/01/04 09:03:09;;;;;;;;;;;24.40;38.30;;;;;;5065249;28;20039;-54
2024/01/04 09:05:36;;;;;;;;;;;24.40;38.10;;;;;;5066627;28;20289;-54
2024/01/04 09:08:05;;;;;;;;;;;24.50;38.00;;;;;;5066840;28;20473;-51
2024/01/04 09:10:31;;;;;;;;;;;24.50;38.00;;;;;;5070639;28;19929;-54
2024/01/04 09:12:59;;;;;;;;;;;24.60;37.90;;;;;;5068268;28;19932;-51
2024/01/04 09:15:26;;;;;;;;;;;24.60;37.80;;;;;;5069522;28;19970;-54
2024/01/04 09:17:54;;;;;;;;;;;24.60;37.70;;;;;;5066216;28;20143;-52
2024/01/04 09:20:23;;;;;;;;;;;24.60;37.70;;;;;;5062709;28;19986;-52
2024/01/04 09:22:50;;;;;;;;;;;24.60;37.70;;;;;;5064719;28;19924;-51
2024/01/04 09:25:17;;;;;;;;;;;24.60;37.70;;;;;;5067243;28;19936;-51
2024/01/04 09:27:44;;;;;;;;;;;24.60;37.70;;;;;;5066215;28;19932;-54
2024/01/04 09:30:11;;;;;;;;;;;24.60;37.60;;;;;;5065767;28;19950;-53
2024/01/04 09:32:39;;;;;;;;;;;24.70;37.60;;;;;;5066515;28;20652;-49
2024/01/04 09:35:06;;;;;;;;;;;24.70;37.50;;;;;;5069026;28;19936;-53
2024/01/04 09:37:33;;;;;;;;;;;24.70;37.40;;;;;;5045129;28;19939;-52
2024/01/04 09:40:00;;;;;;;;;;;24.80;37.40;;;;;;5065845;28;19925;-49
2024/01/04 09:42:30;;;;;;;;;;;24.80;37.30;;;;;;5066636;28;19928;-50
2024/01/04 09:45:00;;;;;;;;;;;24.80;37.20;;;;;;5068451;28;19932;-51
2024/01/04 09:47:27;;;;;;;;;;;24.90;37.20;;;;;;5064180;28;19924;-55
2024/01/04 09:49:54;;;;;;;;;;;24.90;37.10;;;;;;5069925;28;19928;-51
2024/01/04 09:52:24;;;;;;;;;;;24.90;36.90;;;;;;5073924;28;19975;-54
2024/01/04 09:54:53;;;;;;;;;;;25.00;36.90;;;;;;5049281;28;20379;-53
2024/01/04 09:57:21;;;;;;;;;;;25.00;36.70;;;;;;5066326;28;19931;-53
2024/01/04 09:59:48;;;;;;;;;;;25.00;36.60;;;;;;5051350;28;20007;-53
2024/01/04 10:02:17;;;;;;;;;;;25.00;36.60;;;;;;5069244;28;20329;-53
2024/01/04 10:04:45;;;;;;;;;;;25.00;36.60;;;;;;5071762;28;20016;-56
2024/01/04 10:07:17;;;;;;;;;;;25.00;36.60;;;;;;5057412;28;19932;-56
2024/01/04 10:10:04;;;;;;;;;;;25.10;36.60;;;;;;5022522;28;19932;-56
2024/01/04 10:12:36;;;;;;;;;;;25.10;36.60;;;;;;5041551;28;19932;-56
2024/01/04 10:15:04;;;;;;;;;;;25.10;36.50;;;;;;5041910;28;19990;-54
2024/01/04 10:17:32;;;;;;;;;;;25.10;36.70;;;;;;5036798;28;19932;-55
2024/01/04 10:19:59;;;;;;;;;;;25.10;36.60;;;;;;5038223;28;20598;-54
2024/01/04 10:22:26;;;;;;;;;;;25.10;36.50;;;;;;5039559;28;19989;-54
2024/01/04 10:24:54;;;;;;;;;;;25.20;36.50;;;;;;5040582;28;20728;-49
2024/01/04 10:27:22;;;;;;;;;;;25.20;36.50;;;;;;5038056;28;19932;-55
2024/01/04 10:29:51;;;;;;;;;;;25.20;36.50;;;;;;5040797;28;19983;-53
2024/01/04 10:32:19;;;;;;;;;;;25.20;36.60;;;;;;5046187;28;19939;-54
2024/01/04 10:34:46;;;;;;;;;;;25.20;36.40;;;;;;5027156;28;19939;-54
2024/01/04 10:37:13;;;;;;;;;;;25.20;36.10;;;;;;5026587;28;20321;-55
2024/01/04 10:39:45;;;;;;;;;;;25.30;36.20;;;;;;5044761;28;20448;-55
2024/01/04 10:42:13;;;;;;;;;;;25.30;36.60;;;;;;5043200;28;19940;-56
2024/01/04 10:44:43;;;;;;;;;;;25.30;36.00;;;;;;5017313;28;19970;-52
2024/01/04 10:47:13;;;;;;;;;;;25.30;35.90;;;;;;5038815;28;19939;-54
2024/01/04 10:49:41;;;;;;;;;;;25.30;35.90;;;;;;5043972;28;19932;-52
2024/01/04 10:52:13;;;;;;;;;;;25.30;35.80;;;;;;5047345;28;19939;-54
2024/01/04 10:54:41;;;;;;;;;;;25.40;35.80;;;;;;5069039;28;19981;-50
2024/01/04 10:57:09;;;;;;;;;;;25.40;35.70;;;;;;5071568;28;20315;-55
2024/01/04 10:59:36;;;;;;;;;;;25.40;35.60;;;;;;5066604;28;19925;-51
2024/01/04 11:02:04;;;;;;;;;;;25.40;35.50;;;;;;5071246;28;20016;-55
2024/01/04 11:04:31;;;;;;;;;;;25.40;35.60;;;;;;5069377;28;19939;-56
2024/01/04 11:06:58;;;;;;;;;;;25.40;35.70;;;;;;5068957;28;19932;-54
2024/01/04 11:09:25;;;;;;;;;;;25.40;35.70;;;;;;5071836;28;20348;-54
2024/01/04 11:11:53;;;;;;;;;;;25.40;35.80;;;;;;5073614;28;20011;-52
2024/01/04 11:14:20;;;;;;;;;;;25.40;35.80;;;;;;5056734;28;19960;-55
2024/01/04 11:17:07;;;;;;;;;;;25.40;35.80;;;;;;5065626;28;20028;-54
2024/01/04 11:19:46;;;;;;;;;;;25.50;36.50;;;;;;5072202;28;20336;-51
2024/01/04 11:22:22;;;;;;;;;;;25.50;36.10;;;;;;5076325;28;20377;-49
2024/01/04 11:25:09;;;;;;;;;;;25.50;36.20;;;;;;5068480;28;19924;-54
2024/01/04 11:27:36;;;;;;;;;;;25.50;36.20;;;;;;5054851;28;19940;-55
2024/01/04 11:30:04;;;;;;;;;;;25.50;36.30;;;;;;5069246;28;19928;-54
2024/01/04 11:32:32;;;;;;;;;;;25.50;36.30;;;;;;5070442;28;19971;-53
2024/01/04 11:35:02;;;;;;;;;;;25.40;36.00;;;;;;5067470;28;19962;-57
2024/01/04 11:37:31;;;;;;;;;;;25.50;36.00;;;;;;5065190;28;19928;-55
2024/01/04 11:40:00;;;;;;;;;;;25.40;35.90;;;;;;5064817;28;19932;-57
2024/01/04 11:42:31;;;;;;;;;;;25.40;35.80;;;;;;5068654;28;19924;-53
2024/01/04 11:44:59;;;;;;;;;;;25.40;35.80;;;;;;5064204;28;19925;-56
2024/01/04 11:47:26;;;;;;;;;;;25.40;35.70;;;;;;5072662;28;19975;-51
2024/01/04 11:49:59;;;;;;;;;;;25.40;35.80;;;;;;5068171;28;19924;-53
2024/01/04 11:52:39;;;;;;;;;;;25.40;35.90;;;;;;5066389;28;20587;-52
2024/01/04 11:55:07;;;;;;;;;;;25.40;35.90;;;;;;5071716;28;19932;-52
2024/01/04 11:57:34;;;;;;;;;;;25.40;36.00;;;;;;5070574;28;19932;-53
2024/01/04 12:00:14;;;;;;;;;;;25.40;36.00;;;;;;5053158;28;20569;-52
2024/01/04 12:02:42;;;;;;;;;;;25.40;36.00;;;;;;5067550;28;20020;-52
2024/01/04 12:05:09;;;;;;;;;;;25.40;36.10;;;;;;5070739;28;20223;-53
2024/01/04 12:07:36;;;;;;;;;;;25.40;36.10;;;;;;5069055;28;19924;-55
2024/01/04 12:10:03;;;;;;;;;;;25.40;36.10;;;;;;5067096;28;19956;-53
2024/01/04 12:12:30;;;;;;;;;;;25.40;36.10;;;;;;5071441;28;19964;-53
2024/01/04 12:14:59;;;;;;;;;;;25.40;36.20;;;;;;5071433;28;19925;-54
2024/01/04 12:17:26;;;;;;;;;;;25.40;36.20;;;;;;5073730;28;20356;-52
2024/01/04 12:19:53;;;;;;;;;;;25.40;36.20;;;;;;5064309;28;20018;-54
2024/01/04 12:22:20;;;;;;;;;;;25.40;36.10;;;;;;5068294;28;19924;-58
2024/01/04 12:24:47;;;;;;;;;;;25.40;36.10;;;;;;5065719;28;20427;-53
2024/01/04 12:27:15;;;;;;;;;;;25.40;36.00;;;;;;5066483;28;19928;-55
2024/01/04 12:29:42;;;;;;;;;;;25.50;36.00;;;;;;5067180;28;20305;-55
2024/01/04 12:32:09;;;;;;;;;;;25.50;36.00;;;;;;5062988;28;19924;-52
2024/01/04 12:34:45;;;;;;;;;;;25.50;36.10;;;;;;5064208;28;19924;-57
2024/01/04 12:37:15;;;;;;;;;;;25.50;36.10;;;;;;5067970;28;20398;-57
2024/01/04 12:39:42;;;;;;;;;;;25.50;35.90;;;;;;5066272;28;20306;-53
2024/01/04 12:42:12;;;;;;;;;;;25.50;35.90;;;;;;5066931;28;20397;-53
2024/01/04 12:44:39;;;;;;;;;;;25.50;35.90;;;;;;5062374;28;19928;-55
2024/01/04 12:47:09;;;;;;;;;;;25.50;35.80;;;;;;5066159;28;19939;-54
2024/01/04 12:49:36;;;;;;;;;;;25.50;35.80;;;;;;5071653;28;19932;-54
2024/01/04 12:52:11;;;;;;;;;;;25.50;35.70;;;;;;5056871;28;19963;-57
2024/01/04 12:54:38;;;;;;;;;;;25.40;35.60;;;;;;5066882;28;19925;-53
2024/01/04 12:57:05;;;;;;;;;;;25.50;35.60;;;;;;5065976;28;20016;-55
2024/01/04 12:59:33;;;;;;;;;;;25.50;35.50;;;;;;5071256;28;19974;-55
2024/01/04 13:02:00;;;;;;;;;;;25.50;35.50;;;;;;5068747;28;19924;-54
2024/01/04 13:04:27;;;;;;;;;;;25.40;35.40;;;;;;5065517;28;20019;-55
2024/01/04 13:06:54;;;;;;;;;;;25.40;35.40;;;;;;5069005;28;19932;-57
2024/01/04 13:09:21;;;;;;;;;;;25.40;35.40;;;;;;5068555;28;20419;-56
2024/01/04 13:11:48;;;;;;;;;;;25.40;35.10;;;;;;5067065;28;19963;-57
2024/01/04 13:14:15;;;;;;;;;;;25.40;35.00;;;;;;5072836;28;19928;-58
2024/01/04 13:16:42;;;;;;;;;;;25.40;35.00;;;;;;5069611;28;19924;-54
2024/01/04 13:19:11;;;;;;;;;;;25.40;34.80;;;;;;5066381;28;19924;-57
2024/01/04 13:21:39;;;;;;;;;;;25.40;34.80;;;;;;5069770;28;20070;-57
2024/01/04 13:24:06;;;;;;;;;;;25.40;35.30;;;;;;5073737;28;19931;-57
2024/01/04 13:26:33;;;;;;;;;;;25.40;34.60;;;;;;5068426;28;19953;-56
2024/01/04 13:29:00;;;;;;;;;;;25.40;34.60;;;;;;5068563;28;19962;-57
2024/01/04 13:31:27;;;;;;;;;;;25.40;34.60;;;;;;5066890;28;20263;-57
2024/01/04 13:33:54;;;;;;;;;;;25.40;34.70;;;;;;5066610;28;20103;-54
2024/01/04 13:36:22;;;;;;;;;;;25.40;34.70;;;;;;5048799;28;20001;-52
2024/01/04 13:38:49;;;;;;;;;;;25.40;34.80;;;;;;5068051;28;19933;-52
2024/01/04 13:41:18;;;;;;;;;;;25.40;35.00;;;;;;5068513;28;19943;-56
2024/01/04 13:43:46;;;;;;;;;;;25.40;35.10;;;;;;5066523;28;19939;-55
2024/01/04 13:46:13;;;;;;;;;;;25.40;35.20;;;;;;5061483;28;19964;-53
2024/01/04 13:48:40;;;;;;;;;;;25.40;35.20;;;;;;5073411;28;19932;-55
2024/01/04 13:51:08;;;;;;;;;;;25.40;35.20;;;;;;5071865;28;19930;-56
2024/01/04 13:53:35;;;;;;;;;;;25.40;35.30;;;;;;5067274;28;19925;-55
2024/01/04 13:56:02;;;;;;;;;;;25.40;35.40;;;;;;5066297;28;19933;-55
2024/01/04 13:58:29;;;;;;;;;;;25.40;35.70;;;;;;5067080;28;19940;-58
2024/01/04 14:00:56;;;;;;;;;;;25.40;35.80;;;;;;5054405;28;19958;-54
2024/01/04 14:03:24;;;;;;;;;;;25.40;36.10;;;;;;5069784;28;20024;-54
2024/01/04 14:05:51;;;;;;;;;;;25.40;36.20;;;;;;5076585;28;20045;-55
2024/01/04 14:08:21;;;;;;;;;;;25.40;36.30;;;;;;5037072;28;19939;-55
2024/01/04 14:10:48;;;;;;;;;;;25.40;36.40;;;;;;5052100;28;19996;-50
2024/01/04 14:13:15;;;;;;;;;;;25.40;36.50;;;;;;5066009;28;19959;-54
2024/01/04 14:15:43;;;;;;;;;;;25.40;36.70;;;;;;5068471;28;19934;-56
2024/01/04 14:18:10;;;;;;;;;;;25.50;36.80;;;;;;5061136;28;19936;-56